createdAt,value
2022-09-15T00:00:30.116Z,6.23
2022-09-15T00:02:56.877Z,5.90
2022-09-15T00:05:23.467Z,18.00
2022-09-15T00:07:50.023Z,20.23
2022-09-15T00:10:17.330Z,30.70
2022-09-15T00:12:43.870Z,32.80
2022-09-15T00:15:14.554Z,15.13
2022-09-15T00:17:42.611Z,15.47
2022-09-15T00:20:09.856Z,68.80
2022-09-15T00:22:36.371Z,72.43
2022-09-15T00:25:02.927Z,11.83
2022-09-15T00:27:30.875Z,53.50
2022-09-15T00:29:57.404Z,31.23
2022-09-15T00:32:23.962Z,29.53
2022-09-15T00:34:51.246Z,23.00
2022-09-15T00:37:18.075Z,16.77
2022-09-15T00:39:44.985Z,35.03
2022-09-15T00:42:20.057Z,19.20
2022-09-15T00:44:59.238Z,75.07
2022-09-15T00:47:31.145Z,66.17
2022-09-15T00:50:03.738Z,57.20
2022-09-15T00:52:58.145Z,30.67
2022-09-15T00:55:47.332Z,41.70
2022-09-15T00:58:25.609Z,52.57
2022-09-15T01:01:00.809Z,72.07
2022-09-15T01:03:30.506Z,50.47
2022-09-15T01:06:03.930Z,61.50
2022-09-15T01:08:42.306Z,35.70
2022-09-15T01:11:09.046Z,58.13
2022-09-15T01:13:35.656Z,44.97
2022-09-15T01:16:24.180Z,60.47
2022-09-15T01:19:15.983Z,38.83
2022-09-15T01:21:48.671Z,32.37
2022-09-15T01:24:37.723Z,39.47
2022-09-15T01:27:41.756Z,28.33
2022-09-15T01:30:19.284Z,40.60
2022-09-15T01:33:14.674Z,35.60
2022-09-15T01:35:50.865Z,43.90
2022-09-15T01:38:43.728Z,33.47
2022-09-15T01:41:27.533Z,38.93
2022-09-15T01:44:18.178Z,46.83
2022-09-15T01:46:47.630Z,34.87
2022-09-15T01:49:25.292Z,35.17
2022-09-15T01:51:53.791Z,33.00
2022-09-15T01:54:25.394Z,31.90
2022-09-15T01:56:52.474Z,32.80
2022-09-15T01:59:19.110Z,33.83
2022-09-15T02:01:54.203Z,34.53
2022-09-15T02:04:27.985Z,32.10
2022-09-15T02:07:04.007Z,38.67
2022-09-15T02:09:42.846Z,45.20
2022-09-15T02:12:19.386Z,38.90
2022-09-15T02:14:55.910Z,38.43
2022-09-15T02:17:25.176Z,37.07
2022-09-15T02:19:57.423Z,31.70
2022-09-15T02:22:27.779Z,41.43
2022-09-15T02:25:07.983Z,35.43
2022-09-15T02:27:39.227Z,39.03
2022-09-15T02:30:11.635Z,41.73
2022-09-15T02:32:49.819Z,38.73
2022-09-15T02:35:17.743Z,41.03
2022-09-15T02:37:44.737Z,38.07
2022-09-15T02:40:11.519Z,37.20
2022-09-15T02:42:39.227Z,39.07
2022-09-15T02:45:06.454Z,40.97
2022-09-15T02:47:33.109Z,41.90
2022-09-15T02:50:00.061Z,41.33
2022-09-15T02:52:26.618Z,43.77
2022-09-15T02:54:53.406Z,38.83
2022-09-15T02:57:20.877Z,36.33
2022-09-15T03:00:05.928Z,37.47
2022-09-15T03:02:32.553Z,38.53
2022-09-15T03:04:59.066Z,36.90
2022-09-15T03:07:25.669Z,39.57
2022-09-15T03:09:52.309Z,37.63
2022-09-15T03:12:18.848Z,34.50
2022-09-15T03:14:46.916Z,33.30
2022-09-15T03:17:13.498Z,35.03
2022-09-15T03:19:40.150Z,33.63
2022-09-15T03:22:07.059Z,38.07
2022-09-15T03:24:33.658Z,33.47
2022-09-15T03:27:00.602Z,29.60
2022-09-15T03:29:27.218Z,32.03
2022-09-15T03:31:53.863Z,30.50
2022-09-15T03:34:20.608Z,30.17
2022-09-15T03:36:47.114Z,30.57
2022-09-15T03:39:13.706Z,32.53
2022-09-15T03:41:40.417Z,34.87
2022-09-15T03:44:06.938Z,30.57
2022-09-15T03:46:34.109Z,29.40
2022-09-15T03:49:00.639Z,33.10
2022-09-15T03:51:27.231Z,33.47
2022-09-15T03:53:55.510Z,35.33
2022-09-15T03:56:26.077Z,35.47
2022-09-15T03:58:53.677Z,33.90
2022-09-15T04:01:21.219Z,37.97
2022-09-15T04:03:51.080Z,38.30
2022-09-15T04:06:19.757Z,37.53
2022-09-15T04:08:46.388Z,42.10
2022-09-15T04:11:13.558Z,35.57
2022-09-15T04:13:41.882Z,38.27
2022-09-15T04:16:14.277Z,36.63
2022-09-15T04:18:41.126Z,40.13
2022-09-15T04:21:11.533Z,46.80
2022-09-15T04:23:38.734Z,48.13
2022-09-15T04:26:08.108Z,43.37
2022-09-15T04:28:37.229Z,44.00
2022-09-15T04:31:09.683Z,41.23
2022-09-15T04:33:37.036Z,42.67
2022-09-15T04:36:07.109Z,47.07
2022-09-15T04:38:35.585Z,37.77
2022-09-15T04:41:04.030Z,37.97
2022-09-15T04:43:31.717Z,36.83
2022-09-15T04:45:58.615Z,32.60
2022-09-15T04:48:25.962Z,43.97
2022-09-15T04:50:52.750Z,37.43
2022-09-15T04:53:19.510Z,38.80
2022-09-15T04:55:46.045Z,39.13
2022-09-15T04:58:13.029Z,39.10
2022-09-15T05:00:43.358Z,35.43
2022-09-15T05:03:11.248Z,41.83
2022-09-15T05:05:38.056Z,38.13
2022-09-15T05:08:04.766Z,36.23
2022-09-15T05:10:31.601Z,36.90
2022-09-15T05:12:58.104Z,35.87
2022-09-15T05:15:24.679Z,38.97
2022-09-15T05:17:51.582Z,36.17
2022-09-15T05:20:18.254Z,34.60
2022-09-15T05:22:45.371Z,34.80
2022-09-15T05:25:11.949Z,28.50
2022-09-15T05:27:39.334Z,29.23
2022-09-15T05:30:34.851Z,35.30
2022-09-15T05:32:53.828Z,33.03
2022-09-15T05:35:20.495Z,31.07
2022-09-15T05:37:47.065Z,30.73
2022-09-15T05:40:13.703Z,31.33
2022-09-15T05:42:40.382Z,32.93
2022-09-15T05:45:07.523Z,27.50
2022-09-15T05:47:34.152Z,31.33
2022-09-15T05:50:00.694Z,31.50
2022-09-15T05:52:27.203Z,34.60
2022-09-15T05:54:58.850Z,38.17
2022-09-15T05:57:25.747Z,34.23
2022-09-15T05:59:52.344Z,28.00
2022-09-15T06:02:18.922Z,32.83
2022-09-15T06:04:45.487Z,33.20
2022-09-15T06:07:12.357Z,32.30
2022-09-15T06:09:39.312Z,30.30
2022-09-15T06:12:05.999Z,33.43
2022-09-15T06:14:32.586Z,30.83
2022-09-15T06:16:59.098Z,25.33
2022-09-15T06:19:25.650Z,27.60
2022-09-15T06:21:53.389Z,28.13
2022-09-15T06:24:19.980Z,25.60
2022-09-15T06:26:46.592Z,25.70
2022-09-15T06:29:13.445Z,26.37
2022-09-15T06:31:40.414Z,22.83
2022-09-15T06:34:08.525Z,27.50
2022-09-15T06:36:37.583Z,24.83
2022-09-15T06:39:04.843Z,27.03
2022-09-15T06:41:47.439Z,25.37
2022-09-15T06:44:19.749Z,29.00
2022-09-15T06:46:46.437Z,25.40
2022-09-15T06:49:13.013Z,24.57
2022-09-15T06:51:39.756Z,25.47
2022-09-15T06:54:06.478Z,25.77
2022-09-15T06:56:37.683Z,26.40
2022-09-15T06:59:04.758Z,23.27
2022-09-15T07:01:32.264Z,22.93
2022-09-15T07:04:00.931Z,24.17
2022-09-15T07:06:29.484Z,20.10
2022-09-15T07:08:57.110Z,21.60
2022-09-15T07:11:23.940Z,20.47
2022-09-15T07:13:50.742Z,21.80
2022-09-15T07:16:18.905Z,22.00
2022-09-15T07:18:46.993Z,19.20
2022-09-15T07:21:19.713Z,20.53
2022-09-15T07:23:47.196Z,19.23
2022-09-15T07:26:16.254Z,19.30
2022-09-15T07:28:47.134Z,16.37
2022-09-15T07:31:16.485Z,18.83
2022-09-15T07:33:43.193Z,16.23
2022-09-15T07:36:10.324Z,17.37
2022-09-15T07:38:41.134Z,16.17
2022-09-15T07:41:10.102Z,13.40
2022-09-15T07:43:37.014Z,12.63
2022-09-15T07:46:04.307Z,16.97
2022-09-15T07:48:30.930Z,10.93
2022-09-15T07:50:59.665Z,13.20
2022-09-15T07:53:29.998Z,12.40
2022-09-15T07:55:56.773Z,11.10
2022-09-15T07:58:24.742Z,15.27
2022-09-15T08:00:51.730Z,12.53
2022-09-15T08:03:18.346Z,16.10
2022-09-15T08:05:45.828Z,12.17
2022-09-15T08:08:12.945Z,11.53
2022-09-15T08:10:41.128Z,12.87
2022-09-15T08:13:08.092Z,15.27
2022-09-15T08:15:37.266Z,10.37
2022-09-15T08:18:04.780Z,8.70
2022-09-15T08:20:31.705Z,8.83
2022-09-15T08:22:58.371Z,14.67
2022-09-15T08:25:25.015Z,8.93
2022-09-15T08:27:53.945Z,12.20
2022-09-15T08:30:22.126Z,11.00
2022-09-15T08:32:49.241Z,8.63
2022-09-15T08:35:16.976Z,8.10
2022-09-15T08:37:43.515Z,9.80
2022-09-15T08:40:17.987Z,11.07
2022-09-15T08:42:48.126Z,8.87
2022-09-15T08:45:30.959Z,9.43
2022-09-15T08:48:01.314Z,7.57
2022-09-15T08:50:32.112Z,7.10
2022-09-15T08:53:12.780Z,6.67
2022-09-15T08:55:52.144Z,9.77
2022-09-15T08:58:38.047Z,13.43
2022-09-15T09:01:42.417Z,6.30
2022-09-15T09:04:27.353Z,8.27
2022-09-15T09:07:03.384Z,6.23
2022-09-15T09:09:56.194Z,6.50
2022-09-15T09:12:28.250Z,7.83
2022-09-15T09:15:11.972Z,5.87
2022-09-15T09:17:46.537Z,6.70
2022-09-15T09:20:29.125Z,6.00
2022-09-15T09:22:56.850Z,7.63
2022-09-15T09:25:27.979Z,7.20
2022-09-15T09:27:57.980Z,5.30
2022-09-15T09:30:28.136Z,5.27
2022-09-15T09:33:25.553Z,6.47
2022-09-15T09:35:53.269Z,8.17
2022-09-15T09:38:23.230Z,5.33
2022-09-15T09:40:50.340Z,5.23
2022-09-15T09:43:17.090Z,4.17
2022-09-15T09:45:45.719Z,5.07
2022-09-15T09:48:18.804Z,6.87
2022-09-15T09:50:45.693Z,8.47
2022-09-15T09:53:26.375Z,7.27
2022-09-15T09:56:17.007Z,5.27
2022-09-15T09:58:44.616Z,5.90
2022-09-15T10:01:16.945Z,3.23
2022-09-15T10:03:45.151Z,9.20
2022-09-15T10:06:15.782Z,3.10
2022-09-15T10:09:00.026Z,4.27
2022-09-15T10:11:46.393Z,6.87
2022-09-15T10:14:35.454Z,5.10
2022-09-15T10:17:05.704Z,6.50
2022-09-15T10:19:36.413Z,1.97
2022-09-15T10:22:03.940Z,4.90
2022-09-15T10:24:34.500Z,2.10
2022-09-15T10:27:20.922Z,5.80
2022-09-15T10:29:47.870Z,1.87
2022-09-15T10:32:29.924Z,6.70
2022-09-15T10:35:12.163Z,4.33
2022-09-15T10:38:04.928Z,4.67
2022-09-15T10:40:45.975Z,4.93
2022-09-15T10:43:21.990Z,3.23
2022-09-15T10:45:53.727Z,7.43
2022-09-15T10:48:32.010Z,4.00
2022-09-15T10:51:36.085Z,6.87
2022-09-15T10:54:20.833Z,6.70
2022-09-15T10:56:51.998Z,3.87
2022-09-15T10:59:56.459Z,3.97
2022-09-15T11:03:01.522Z,3.87
2022-09-15T11:05:39.776Z,4.17
2022-09-15T11:08:35.435Z,4.03
2022-09-15T11:11:05.129Z,4.20
2022-09-15T11:13:46.811Z,5.93
2022-09-15T11:16:28.638Z,5.40
2022-09-15T11:19:21.381Z,4.57
2022-09-15T11:21:55.748Z,7.60
2022-09-15T11:24:35.297Z,8.23
2022-09-15T11:27:19.813Z,4.10
2022-09-15T11:30:05.890Z,3.80
2022-09-15T11:33:00.290Z,7.30
2022-09-15T11:35:31.022Z,4.90
2022-09-15T11:38:34.833Z,2.17
2022-09-15T11:41:26.225Z,4.53
2022-09-15T11:44:16.721Z,3.33
2022-09-15T11:47:05.569Z,5.20
2022-09-15T11:49:43.430Z,2.57
2022-09-15T11:52:51.998Z,4.00
2022-09-15T11:55:24.870Z,7.10
2022-09-15T11:57:59.589Z,4.20
2022-09-15T12:00:26.207Z,5.17
2022-09-15T12:03:22.399Z,2.40
2022-09-15T12:05:59.959Z,7.27
2022-09-15T12:08:52.662Z,4.33
2022-09-15T12:11:23.049Z,4.57
2022-09-15T12:13:50.202Z,5.23
2022-09-15T12:16:17.406Z,6.93
2022-09-15T12:18:53.388Z,8.47
2022-09-15T12:21:27.679Z,4.60
2022-09-15T12:24:13.021Z,3.97
2022-09-15T12:26:43.090Z,4.20
2022-09-15T12:29:21.523Z,4.73
2022-09-15T12:31:48.049Z,4.23
2022-09-15T12:34:34.481Z,4.97
2022-09-15T12:37:12.633Z,4.07
2022-09-15T12:39:43.197Z,2.77
2022-09-15T12:42:23.484Z,4.87
2022-09-15T12:44:51.867Z,1.90
2022-09-15T12:47:32.949Z,2.47
2022-09-15T12:50:19.782Z,4.67
2022-09-15T12:52:58.069Z,1.90
2022-09-15T12:55:28.487Z,6.50
2022-09-15T12:58:00.042Z,3.47
2022-09-15T13:00:38.003Z,2.33
2022-09-15T13:03:26.646Z,3.37
2022-09-15T13:06:26.175Z,2.30
2022-09-15T13:09:03.847Z,4.60
2022-09-15T13:11:34.511Z,4.63
2022-09-15T13:14:04.016Z,4.43
2022-09-15T13:16:51.726Z,2.87
2022-09-15T13:19:21.228Z,2.73
2022-09-15T13:22:07.628Z,3.30
2022-09-15T13:24:59.033Z,0.90
2022-09-15T13:27:40.515Z,2.20
2022-09-15T13:30:25.970Z,2.73
2022-09-15T13:33:25.007Z,3.73
2022-09-15T13:35:51.714Z,4.77
2022-09-15T13:38:42.226Z,2.53
2022-09-15T13:41:40.031Z,1.33
2022-09-15T13:44:17.770Z,3.00
2022-09-15T13:47:00.230Z,1.03
2022-09-15T13:49:42.461Z,1.87
2022-09-15T13:52:35.236Z,4.00
2022-09-15T13:55:27.642Z,2.13
2022-09-15T14:00:55.795Z,2.73
2022-09-15T14:03:37.225Z,1.17
2022-09-15T14:06:13.133Z,0.67
2022-09-15T14:08:41.594Z,2.17
2022-09-15T14:11:13.241Z,4.30
2022-09-15T14:13:47.042Z,2.80
2022-09-15T14:16:23.793Z,2.83
2022-09-15T14:18:51.842Z,3.20
2022-09-15T14:21:21.586Z,2.60
2022-09-15T14:23:50.543Z,1.47
2022-09-15T14:26:20.139Z,3.57
2022-09-15T14:28:52.933Z,1.60
2022-09-15T14:31:28.701Z,3.77
2022-09-15T14:33:55.739Z,3.73
2022-09-15T14:36:27.539Z,5.60
2022-09-15T14:39:16.690Z,4.27
2022-09-15T14:41:43.690Z,2.40
2022-09-15T14:47:22.153Z,4.87
2022-09-15T14:49:49.208Z,2.37
2022-09-15T14:52:24.073Z,1.80
2022-09-15T14:54:54.459Z,2.37
2022-09-15T14:57:28.734Z,3.37
2022-09-15T15:00:07.796Z,3.73
2022-09-15T15:02:56.569Z,5.13
2022-09-15T15:05:37.762Z,3.43
2022-09-15T15:08:06.679Z,1.40
2022-09-15T15:10:36.055Z,1.20
2022-09-15T15:13:08.837Z,1.07
2022-09-15T15:15:37.954Z,2.17
2022-09-15T15:18:07.316Z,2.30
2022-09-15T15:20:33.903Z,1.73
2022-09-15T15:23:11.403Z,0.80
2022-09-15T15:25:38.149Z,5.23
2022-09-15T15:28:05.583Z,2.33
2022-09-15T15:30:33.802Z,3.17
2022-09-15T15:33:06.367Z,3.07
2022-09-15T15:35:35.639Z,5.17
2022-09-15T15:38:16.466Z,2.80
2022-09-15T15:40:44.707Z,4.67
2022-09-15T15:43:21.425Z,4.60
2022-09-15T15:45:50.376Z,3.60
2022-09-15T15:48:17.003Z,2.93
2022-09-15T15:50:44.054Z,5.23
2022-09-15T15:53:10.647Z,3.80
2022-09-15T15:55:40.948Z,4.33
2022-09-15T15:58:10.098Z,2.90
2022-09-15T16:00:44.211Z,2.33
2022-09-15T16:03:11.814Z,5.30
2022-09-15T16:05:39.878Z,1.77
2022-09-15T16:08:11.697Z,4.17
2022-09-15T16:10:42.439Z,3.93
2022-09-15T16:13:14.046Z,4.40
2022-09-15T16:15:41.369Z,8.90
2022-09-15T16:18:07.959Z,1.60
2022-09-15T16:20:34.909Z,4.97
2022-09-15T16:23:01.728Z,3.80
2022-09-15T16:25:38.282Z,3.63
2022-09-15T16:28:05.413Z,3.90
2022-09-15T16:30:33.197Z,4.50
2022-09-15T16:32:59.836Z,4.23
2022-09-15T16:35:39.481Z,2.37
2022-09-15T16:38:07.482Z,3.40
2022-09-15T16:40:34.176Z,6.73
2022-09-15T16:43:00.827Z,3.10
2022-09-15T16:45:38.241Z,4.73
2022-09-15T16:48:07.490Z,5.47
2022-09-15T16:50:34.145Z,1.67
2022-09-15T16:53:00.782Z,1.57
2022-09-15T16:55:32.415Z,8.93
2022-09-15T16:58:02.156Z,4.00
2022-09-15T17:00:30.467Z,2.80
2022-09-15T17:02:57.520Z,5.70
2022-09-15T17:05:47.810Z,4.20
2022-09-15T17:08:15.164Z,2.13
2022-09-15T17:10:41.690Z,3.67
2022-09-15T17:13:09.023Z,2.07
2022-09-15T17:15:38.494Z,2.97
2022-09-15T17:18:06.839Z,2.93
2022-09-15T17:20:38.607Z,3.07
2022-09-15T17:23:23.383Z,2.77
2022-09-15T17:25:57.284Z,2.47
2022-09-15T17:28:26.843Z,5.37
2022-09-15T17:30:58.283Z,3.83
2022-09-15T17:33:26.009Z,1.97
2022-09-15T17:35:53.238Z,5.33
2022-09-15T17:38:21.635Z,4.37
2022-09-15T17:40:49.853Z,5.00
2022-09-15T17:43:22.102Z,8.40
2022-09-15T17:45:50.066Z,4.63
2022-09-15T17:48:17.281Z,4.17
2022-09-15T17:50:45.223Z,4.07
2022-09-15T17:53:17.373Z,2.80
2022-09-15T17:55:44.325Z,1.93
2022-09-15T17:58:11.402Z,2.07
2022-09-15T18:00:39.907Z,2.23
2022-09-15T18:03:34.867Z,5.87
2022-09-15T18:06:05.161Z,4.07
2022-09-15T18:08:33.065Z,5.47
2022-09-15T18:11:00.571Z,5.90
2022-09-15T18:13:29.679Z,4.17
2022-09-15T18:15:57.086Z,1.97
2022-09-15T18:18:26.701Z,4.33
2022-09-15T18:20:56.638Z,4.40
2022-09-15T18:23:24.876Z,1.53
2022-09-15T18:25:52.132Z,1.87
2022-09-15T18:28:19.523Z,6.37
2022-09-15T18:30:48.905Z,1.43
2022-09-15T18:33:20.166Z,4.37
2022-09-15T18:35:48.424Z,5.97
2022-09-15T18:38:15.450Z,1.90
2022-09-15T18:40:50.461Z,5.40
2022-09-15T18:43:17.531Z,2.77
2022-09-15T18:45:44.403Z,2.93
2022-09-15T18:48:13.198Z,4.17
2022-09-15T18:50:41.218Z,3.93
2022-09-15T18:53:07.819Z,3.57
2022-09-15T18:55:34.780Z,1.07
2022-09-15T18:58:01.502Z,2.87
2022-09-15T19:00:29.082Z,2.40
2022-09-15T19:03:01.047Z,4.17
2022-09-15T19:05:28.930Z,2.47
2022-09-15T19:07:55.788Z,1.93
2022-09-15T19:10:22.686Z,2.70
2022-09-15T19:12:49.570Z,4.17
2022-09-15T19:15:16.185Z,1.53
2022-09-15T19:17:43.610Z,2.63
2022-09-15T19:20:13.171Z,1.77
2022-09-15T19:22:40.736Z,3.77
2022-09-15T19:25:08.846Z,1.83
2022-09-15T19:27:36.758Z,13.73
2022-09-15T19:30:03.959Z,1.00
2022-09-15T19:32:32.540Z,2.50
2022-09-15T19:34:59.315Z,3.13
2022-09-15T19:37:26.309Z,0.63
2022-09-15T19:39:53.045Z,3.97
2022-09-15T19:42:19.631Z,2.53
2022-09-15T19:44:47.768Z,2.37
2022-09-15T19:47:14.550Z,1.40
2022-09-15T19:49:41.123Z,3.03
2022-09-15T19:52:07.709Z,5.07
2022-09-15T19:54:34.555Z,2.17
2022-09-15T19:57:01.912Z,2.57
2022-09-15T19:59:31.239Z,2.80
2022-09-15T20:01:59.223Z,1.53
2022-09-15T20:04:26.147Z,1.60
2022-09-15T20:06:52.688Z,3.07
2022-09-15T20:09:19.373Z,3.03
2022-09-15T20:11:46.010Z,1.27
2022-09-15T20:14:13.549Z,5.13
2022-09-15T20:16:40.283Z,2.47
2022-09-15T20:19:06.990Z,2.77
2022-09-15T20:21:49.725Z,0.73
2022-09-15T20:24:17.805Z,6.67
2022-09-15T20:26:44.360Z,4.00
2022-09-15T20:29:11.328Z,2.30
2022-09-15T20:31:37.989Z,1.73
2022-09-15T20:34:04.538Z,2.13
2022-09-15T20:36:35.389Z,2.63
2022-09-15T20:39:04.506Z,2.20
2022-09-15T20:41:34.334Z,1.30
2022-09-15T20:44:01.094Z,1.80
2022-09-15T20:46:31.282Z,3.80
2022-09-15T20:48:57.990Z,1.73
2022-09-15T20:51:27.849Z,1.57
2022-09-15T20:53:56.046Z,3.70
2022-09-15T20:56:25.495Z,3.97
2022-09-15T20:58:53.831Z,0.40
2022-09-15T21:01:25.658Z,2.53
2022-09-15T21:03:55.154Z,0.93
2022-09-15T21:06:24.224Z,4.27
2022-09-15T21:08:51.806Z,2.70
2022-09-15T21:11:20.155Z,2.43
2022-09-15T21:13:48.050Z,4.50
2022-09-15T21:16:20.425Z,2.10
2022-09-15T21:18:48.055Z,4.43
2022-09-15T21:21:18.557Z,2.37
2022-09-15T21:23:48.079Z,5.13
2022-09-15T21:26:16.921Z,2.73
2022-09-15T21:28:44.857Z,2.53
2022-09-15T21:31:16.947Z,3.37
2022-09-15T21:33:45.091Z,2.87
2022-09-15T21:36:23.091Z,1.60
2022-09-15T21:38:52.152Z,3.87
2022-09-15T21:41:21.414Z,4.20
2022-09-15T21:43:49.206Z,1.87
2022-09-15T21:46:18.153Z,1.63
2022-09-15T21:48:47.193Z,1.93
2022-09-15T21:51:15.494Z,3.13
2022-09-15T21:53:42.921Z,0.97
2022-09-15T21:56:11.848Z,4.03
2022-09-15T21:58:42.981Z,2.30
2022-09-15T22:01:20.201Z,4.47
2022-09-15T22:03:52.858Z,5.17
2022-09-15T22:06:21.817Z,2.07
2022-09-15T22:08:48.807Z,1.83
2022-09-15T22:11:15.343Z,1.87
2022-09-15T22:13:43.704Z,1.37
2022-09-15T22:16:16.342Z,1.90
2022-09-15T22:18:43.871Z,1.90
2022-09-15T22:21:16.048Z,2.43
2022-09-15T22:23:44.133Z,1.73
2022-09-15T22:26:13.983Z,1.10
2022-09-15T22:28:40.920Z,1.50
2022-09-15T22:31:09.981Z,2.33
2022-09-15T22:33:37.526Z,4.77
2022-09-15T22:36:05.935Z,5.43
2022-09-15T22:38:32.486Z,1.30
2022-09-15T22:41:04.976Z,5.00
2022-09-15T22:43:31.808Z,4.30
2022-09-15T22:45:58.371Z,4.17
2022-09-15T22:48:25.039Z,2.07
2022-09-15T22:50:51.590Z,3.00
2022-09-15T22:53:18.159Z,2.73
2022-09-15T22:55:44.757Z,2.23
2022-09-15T22:58:11.362Z,1.73
2022-09-15T23:00:38.654Z,1.50
2022-09-15T23:03:06.790Z,4.33
2022-09-15T23:05:34.096Z,4.50
2022-09-15T23:08:00.885Z,1.83
2022-09-15T23:10:28.119Z,1.90
2022-09-15T23:12:54.687Z,1.63
2022-09-15T23:15:21.345Z,1.53
2022-09-15T23:17:47.870Z,3.33
2022-09-15T23:20:14.555Z,1.30
2022-09-15T23:22:41.099Z,3.83
2022-09-15T23:25:08.099Z,4.90
2022-09-15T23:27:34.595Z,1.13
2022-09-15T23:30:01.139Z,5.83
2022-09-15T23:32:27.724Z,2.83
2022-09-15T23:34:54.735Z,1.37
2022-09-15T23:37:21.687Z,2.37
2022-09-15T23:39:48.223Z,3.63
2022-09-15T23:42:18.760Z,6.83
2022-09-15T23:44:45.919Z,0.97
2022-09-15T23:47:12.441Z,2.20
2022-09-15T23:49:38.961Z,1.90
2022-09-15T23:52:05.508Z,1.50
2022-09-15T23:54:32.031Z,1.17
2022-09-15T23:56:58.717Z,1.20
2022-09-15T23:59:25.303Z,1.90
